createdAt,value
2019-01-17T00:01:37.234Z,3.90
2019-01-17T00:04:24.262Z,3.90
2019-01-17T00:07:18.506Z,3.90
2019-01-17T00:10:14.105Z,3.90
2019-01-17T00:12:54.843Z,3.90
2019-01-17T00:15:45.925Z,3.90
2019-01-17T00:18:36.737Z,3.90
2019-01-17T00:21:23.289Z,3.90
2019-01-17T00:24:04.577Z,3.90
2019-01-17T00:26:58.945Z,3.90
2019-01-17T00:29:42.401Z,3.90
2019-01-17T00:32:31.576Z,3.90
2019-01-17T00:35:22.251Z,3.90
2019-01-17T00:38:03.521Z,3.90
2019-01-17T00:40:52.105Z,3.90
2019-01-17T00:43:41.666Z,3.90
2019-01-17T00:46:23.613Z,3.90
2019-01-17T00:49:18.143Z,3.90
2019-01-17T00:52:04.883Z,3.90
2019-01-17T00:55:11.337Z,3.90
2019-01-17T00:58:06.761Z,4.00
2019-01-17T01:01:01.738Z,4.00
2019-01-17T01:03:45.902Z,4.00
2019-01-17T01:06:29.618Z,4.00
2019-01-17T01:09:32.731Z,4.00
2019-01-17T01:12:55.057Z,4.00
2019-01-17T01:15:34.141Z,4.10
2019-01-17T01:18:28.270Z,4.10
2019-01-17T01:21:26.173Z,4.10
2019-01-17T01:24:19.402Z,4.10
2019-01-17T01:27:11.773Z,4.10
2019-01-17T01:29:52.309Z,4.00
2019-01-17T01:32:38.861Z,4.00
2019-01-17T01:35:19.938Z,4.00
2019-01-17T01:38:06.705Z,4.10
2019-01-17T01:40:43.325Z,4.10
2019-01-17T01:43:38.845Z,4.10
2019-01-17T01:46:25.361Z,4.10
2019-01-17T01:49:08.441Z,4.10
2019-01-17T01:51:52.253Z,4.10
2019-01-17T01:54:22.130Z,4.10
2019-01-17T01:56:51.758Z,4.10
2019-01-17T01:59:20.778Z,4.10
2019-01-17T02:01:49.805Z,4.10
2019-01-17T02:04:18.646Z,4.10
2019-01-17T02:06:49.110Z,4.10
2019-01-17T02:09:18.475Z,4.10
2019-01-17T02:11:47.594Z,4.10
2019-01-17T02:14:18.298Z,4.10
2019-01-17T02:16:47.725Z,4.10
2019-01-17T02:19:16.827Z,4.10
2019-01-17T02:21:45.942Z,4.10
2019-01-17T02:24:15.102Z,4.10
2019-01-17T02:26:44.304Z,4.10
2019-01-17T02:29:13.673Z,4.10
2019-01-17T02:31:42.781Z,4.10
2019-01-17T02:34:11.726Z,4.10
2019-01-17T02:36:41.133Z,4.10
2019-01-17T02:39:10.619Z,4.00
2019-01-17T02:41:40.007Z,4.00
2019-01-17T02:44:09.167Z,4.00
2019-01-17T02:46:38.071Z,3.90
2019-01-17T02:49:06.978Z,3.90
2019-01-17T02:51:36.677Z,3.90
2019-01-17T02:54:06.082Z,3.90
2019-01-17T02:56:35.551Z,3.90
2019-01-17T02:59:04.519Z,3.80
2019-01-17T03:01:33.473Z,3.80
2019-01-17T03:04:02.319Z,3.80
2019-01-17T03:06:31.206Z,3.80
2019-01-17T03:09:02.109Z,3.80
2019-01-17T03:11:31.999Z,3.80
2019-01-17T03:14:01.241Z,3.70
2019-01-17T03:16:30.389Z,3.70
2019-01-17T03:18:59.427Z,3.70
2019-01-17T03:21:28.784Z,3.70
2019-01-17T03:23:58.001Z,3.70
2019-01-17T03:26:26.957Z,3.70
2019-01-17T03:28:55.922Z,3.70
2019-01-17T03:31:25.218Z,3.70
2019-01-17T03:33:54.126Z,3.60
2019-01-17T03:36:22.997Z,3.60
2019-01-17T03:38:52.526Z,3.60
2019-01-17T03:41:21.461Z,3.60
2019-01-17T03:43:50.593Z,3.60
2019-01-17T03:46:19.961Z,3.60
2019-01-17T03:48:49.609Z,3.60
2019-01-17T03:51:18.463Z,3.60
2019-01-17T03:53:48.916Z,3.50
2019-01-17T03:56:21.904Z,3.50
2019-01-17T03:58:48.774Z,3.50
2019-01-17T04:01:18.022Z,3.50
2019-01-17T04:03:47.099Z,3.50
2019-01-17T04:06:15.991Z,3.50
2019-01-17T04:08:45.154Z,3.50
2019-01-17T04:11:14.316Z,3.50
2019-01-17T04:13:43.132Z,3.50
2019-01-17T04:16:12.062Z,3.50
2019-01-17T04:18:41.026Z,3.50
2019-01-17T04:21:10.286Z,3.50
2019-01-17T04:23:39.106Z,3.50
2019-01-17T04:26:07.984Z,3.50
2019-01-17T04:28:36.869Z,3.50
2019-01-17T04:31:05.758Z,3.50
2019-01-17T04:33:34.862Z,3.50
2019-01-17T04:36:04.300Z,3.50
2019-01-17T04:38:34.733Z,3.50
2019-01-17T04:41:04.878Z,3.50
2019-01-17T04:43:35.464Z,3.50
2019-01-17T04:46:05.019Z,3.50
2019-01-17T04:48:33.867Z,3.50
2019-01-17T04:51:02.680Z,3.60
2019-01-17T04:53:31.532Z,3.50
2019-01-17T04:56:00.600Z,3.60
2019-01-17T04:58:29.433Z,3.60
2019-01-17T05:00:58.930Z,3.60
2019-01-17T05:03:27.764Z,3.60
2019-01-17T05:05:56.793Z,3.60
2019-01-17T05:08:26.141Z,3.60
2019-01-17T05:10:55.151Z,3.60
2019-01-17T05:13:24.211Z,3.60
2019-01-17T05:15:53.336Z,3.60
2019-01-17T05:18:22.742Z,3.60
2019-01-17T05:20:51.965Z,3.60
2019-01-17T05:23:21.166Z,3.60
2019-01-17T05:25:50.159Z,3.60
2019-01-17T05:28:19.190Z,3.60
2019-01-17T05:30:48.021Z,3.60
2019-01-17T05:33:16.862Z,3.60
2019-01-17T05:35:46.638Z,3.70
2019-01-17T05:38:15.405Z,3.70
2019-01-17T05:40:45.750Z,3.70
2019-01-17T05:43:14.727Z,3.60
2019-01-17T05:45:43.755Z,3.60
2019-01-17T05:48:12.834Z,3.60
2019-01-17T05:50:42.126Z,3.70
2019-01-17T05:53:11.626Z,3.70
2019-01-17T05:55:40.578Z,3.60
2019-01-17T05:58:09.363Z,3.60
2019-01-17T06:00:39.146Z,3.60
2019-01-17T06:03:07.894Z,3.60
2019-01-17T06:05:37.167Z,3.60
2019-01-17T06:08:06.086Z,3.60
2019-01-17T06:10:35.770Z,3.60
2019-01-17T06:13:05.865Z,3.50
2019-01-17T06:15:35.089Z,3.50
2019-01-17T06:18:05.333Z,3.50
2019-01-17T06:20:34.683Z,3.50
2019-01-17T06:23:03.501Z,3.50
2019-01-17T06:25:32.841Z,3.50
2019-01-17T06:28:02.810Z,3.50
2019-01-17T06:30:31.703Z,3.50
2019-01-17T06:33:00.665Z,3.50
2019-01-17T06:35:29.807Z,3.50
2019-01-17T06:37:58.893Z,3.50
2019-01-17T06:40:32.753Z,3.60
2019-01-17T06:43:02.525Z,3.60
2019-01-17T06:45:31.553Z,3.60
2019-01-17T06:48:00.937Z,3.60
2019-01-17T06:50:29.695Z,3.60
2019-01-17T06:52:58.797Z,3.60
2019-01-17T06:55:27.746Z,3.60
2019-01-17T06:57:57.916Z,3.60
2019-01-17T07:00:27.397Z,3.50
2019-01-17T07:02:56.219Z,3.50
2019-01-17T07:05:25.145Z,3.50
2019-01-17T07:07:54.127Z,3.50
2019-01-17T07:10:24.863Z,3.50
2019-01-17T07:12:54.662Z,3.50
2019-01-17T07:15:23.497Z,3.50
2019-01-17T07:17:52.786Z,3.50
2019-01-17T07:20:21.942Z,3.50
2019-01-17T07:22:51.115Z,3.40
2019-01-17T07:25:20.034Z,3.40
2019-01-17T07:27:49.039Z,3.40
2019-01-17T07:30:20.590Z,3.40
2019-01-17T07:32:49.574Z,3.40
2019-01-17T07:35:18.579Z,3.40
2019-01-17T07:37:47.956Z,3.40
2019-01-17T07:40:17.029Z,3.40
2019-01-17T07:42:46.725Z,3.40
2019-01-17T07:45:21.775Z,3.40
2019-01-17T07:47:51.118Z,3.50
2019-01-17T07:50:20.109Z,3.50
2019-01-17T07:52:49.369Z,3.50
2019-01-17T07:55:18.793Z,3.50
2019-01-17T07:57:48.318Z,3.50
2019-01-17T08:00:19.317Z,3.50
2019-01-17T08:02:48.876Z,3.50
2019-01-17T08:05:17.709Z,3.60
2019-01-17T08:07:46.738Z,3.60
2019-01-17T08:12:42.922Z,3.60
2019-01-17T08:15:15.573Z,3.60
2019-01-17T08:17:47.297Z,3.60
2019-01-17T08:20:21.894Z,3.60
2019-01-17T08:22:51.292Z,3.60
2019-01-17T08:25:20.490Z,3.60
2019-01-17T08:27:49.366Z,3.60
2019-01-17T08:30:20.795Z,3.60
2019-01-17T08:32:52.189Z,3.60
2019-01-17T08:35:21.752Z,3.60
2019-01-17T08:37:50.689Z,3.70
2019-01-17T08:40:25.489Z,3.70
2019-01-17T08:42:54.374Z,3.60
2019-01-17T08:45:23.424Z,3.60
2019-01-17T08:47:52.302Z,3.60
2019-01-17T08:50:21.373Z,3.60
2019-01-17T08:52:50.627Z,3.60
2019-01-17T08:55:19.602Z,3.70
2019-01-17T08:57:51.274Z,3.70
2019-01-17T09:00:21.810Z,3.70
2019-01-17T09:02:51.033Z,3.70
2019-01-17T09:05:20.055Z,3.70
2019-01-17T09:07:49.258Z,3.70
2019-01-17T09:10:21.689Z,3.70
2019-01-17T09:12:50.864Z,3.70
2019-01-17T09:15:22.109Z,3.90
2019-01-17T09:17:51.205Z,3.80
2019-01-17T09:20:20.030Z,3.80
2019-01-17T09:22:51.230Z,3.80
2019-01-17T09:25:20.150Z,3.80
2019-01-17T09:27:49.257Z,3.80
2019-01-17T09:30:21.314Z,3.80
2019-01-17T09:32:50.415Z,3.80
2019-01-17T09:35:19.929Z,3.70
2019-01-17T09:37:49.177Z,3.80
2019-01-17T09:40:19.730Z,3.80
2019-01-17T09:42:48.829Z,3.80
2019-01-17T09:45:18.373Z,3.90
2019-01-17T09:47:50.785Z,3.90
2019-01-17T09:50:21.929Z,3.90
2019-01-17T09:52:51.122Z,3.90
2019-01-17T09:55:20.609Z,4.00
2019-01-17T09:57:50.139Z,4.00
2019-01-17T10:00:24.372Z,4.00
2019-01-17T10:02:53.638Z,4.00
2019-01-17T10:05:22.502Z,4.00
2019-01-17T10:07:51.919Z,4.00
2019-01-17T10:10:20.897Z,4.00
2019-01-17T10:12:49.934Z,4.10
2019-01-17T10:15:42.637Z,4.10
2019-01-17T10:18:48.968Z,4.10
2019-01-17T10:22:02.199Z,4.10
2019-01-17T10:24:37.238Z,4.00
2019-01-17T10:27:50.202Z,4.00
2019-01-17T10:30:41.574Z,4.20
2019-01-17T10:33:21.743Z,4.80
2019-01-17T10:36:27.270Z,6.50
2019-01-17T10:39:52.030Z,6.10
2019-01-17T10:43:14.438Z,5.00
2019-01-17T10:46:16.791Z,4.60
2019-01-17T10:49:26.950Z,4.60
2019-01-17T10:52:29.350Z,4.60
2019-01-17T10:55:23.173Z,4.70
2019-01-17T10:58:36.277Z,4.70
2019-01-17T11:01:37.682Z,4.60
2019-01-17T11:04:36.657Z,4.40
2019-01-17T11:07:31.594Z,4.40
2019-01-17T11:10:44.781Z,4.40
2019-01-17T11:13:51.784Z,4.40
2019-01-17T11:16:50.870Z,4.40
2019-01-17T11:20:03.811Z,4.40
2019-01-17T11:23:17.508Z,4.40
2019-01-17T11:26:05.969Z,4.40
2019-01-17T11:29:16.799Z,4.30
2019-01-17T11:32:13.969Z,4.40
2019-01-17T11:35:15.145Z,4.50
2019-01-17T11:37:55.914Z,4.50
2019-01-17T11:40:59.801Z,4.60
2019-01-17T11:44:18.841Z,4.60
2019-01-17T11:47:52.696Z,4.60
2019-01-17T11:50:52.122Z,4.60
2019-01-17T11:54:09.979Z,4.60
2019-01-17T11:57:29.669Z,4.60
2019-01-17T12:00:49.069Z,4.70
2019-01-17T12:03:50.357Z,4.80
2019-01-17T12:06:19.702Z,4.80
2019-01-17T12:08:49.021Z,4.80
2019-01-17T12:11:17.806Z,4.70
2019-01-17T12:13:46.562Z,4.70
2019-01-17T12:16:15.622Z,4.70
2019-01-17T12:18:45.844Z,4.60
2019-01-17T12:21:14.681Z,4.70
2019-01-17T12:23:46.855Z,4.70
2019-01-17T12:26:17.274Z,4.70
2019-01-17T12:28:46.788Z,4.80
2019-01-17T12:31:15.673Z,4.70
2019-01-17T12:33:45.044Z,4.70
2019-01-17T12:36:13.835Z,4.80
2019-01-17T12:38:43.569Z,4.90
2019-01-17T12:41:13.041Z,4.90
2019-01-17T12:43:42.163Z,4.90
2019-01-17T12:46:12.130Z,4.90
2019-01-17T12:48:41.321Z,4.90
2019-01-17T12:51:12.597Z,4.80
2019-01-17T12:53:41.622Z,4.70
2019-01-17T12:56:12.035Z,4.70
2019-01-17T12:58:43.726Z,4.70
2019-01-17T13:01:12.541Z,4.70
2019-01-17T13:03:41.438Z,4.60
2019-01-17T13:06:12.867Z,4.60
2019-01-17T13:08:41.625Z,4.60
2019-01-17T13:11:12.985Z,4.60
2019-01-17T13:13:41.747Z,4.50
2019-01-17T13:16:12.074Z,4.50
2019-01-17T13:18:41.225Z,4.50
2019-01-17T13:21:10.349Z,4.50
2019-01-17T13:23:39.204Z,4.60
2019-01-17T13:26:10.714Z,4.60
2019-01-17T13:28:39.635Z,4.50
2019-01-17T13:31:08.518Z,4.60
2019-01-17T13:33:37.467Z,4.60
2019-01-17T13:36:10.150Z,4.60
2019-01-17T13:38:40.584Z,4.60
2019-01-17T13:41:09.626Z,4.50
2019-01-17T13:43:38.432Z,4.50
2019-01-17T13:46:08.515Z,4.50
2019-01-17T13:48:37.462Z,4.50
2019-01-17T13:51:07.878Z,4.40
2019-01-17T13:53:39.736Z,4.50
2019-01-17T13:56:10.216Z,4.50
2019-01-17T13:58:39.399Z,4.40
2019-01-17T14:01:08.333Z,4.40
2019-01-17T14:03:37.798Z,4.40
2019-01-17T14:06:06.821Z,4.40
2019-01-17T14:08:35.854Z,4.30
2019-01-17T14:11:04.762Z,4.30
2019-01-17T14:13:33.655Z,4.30
2019-01-17T14:16:02.758Z,4.30
2019-01-17T14:18:31.959Z,4.30
2019-01-17T14:21:00.796Z,4.20
2019-01-17T14:23:30.185Z,4.20
2019-01-17T14:25:58.997Z,4.10
2019-01-17T14:28:27.858Z,4.10
2019-01-17T14:30:56.862Z,4.10
2019-01-17T14:33:25.877Z,4.10
2019-01-17T14:35:55.173Z,4.10
2019-01-17T14:38:23.966Z,4.20
2019-01-17T14:40:52.805Z,4.10
2019-01-17T14:43:22.050Z,4.10
2019-01-17T14:45:51.341Z,4.10
2019-01-17T14:48:20.210Z,4.00
2019-01-17T14:50:49.225Z,4.00
2019-01-17T14:53:18.025Z,4.10
2019-01-17T14:55:46.962Z,4.00
2019-01-17T14:58:15.865Z,4.00
2019-01-17T15:00:45.157Z,4.00
2019-01-17T15:03:13.946Z,4.00
2019-01-17T15:05:43.405Z,4.00
2019-01-17T15:08:12.829Z,3.90
2019-01-17T15:10:42.308Z,3.90
2019-01-17T15:13:11.195Z,3.90
2019-01-17T15:15:40.017Z,3.80
2019-01-17T15:18:09.278Z,3.70
2019-01-17T15:20:38.468Z,3.80
2019-01-17T15:23:09.947Z,3.70
2019-01-17T15:25:38.802Z,3.60
2019-01-17T15:28:07.625Z,3.50
2019-01-17T15:30:36.497Z,3.40
2019-01-17T15:33:05.357Z,3.30
2019-01-17T15:35:34.261Z,3.20
2019-01-17T15:38:03.170Z,3.10
2019-01-17T15:40:32.762Z,3.10
2019-01-17T15:43:02.197Z,3.10
2019-01-17T15:45:31.165Z,3.20
2019-01-17T15:48:00.173Z,3.20
2019-01-17T15:50:29.071Z,3.10
2019-01-17T15:52:57.840Z,3.00
2019-01-17T15:55:26.785Z,3.00
2019-01-17T15:57:55.699Z,3.10
2019-01-17T16:00:26.841Z,3.10
2019-01-17T16:02:56.197Z,2.90
2019-01-17T16:05:25.146Z,2.80
2019-01-17T16:07:54.157Z,2.80
2019-01-17T16:10:23.342Z,3.00
2019-01-17T16:12:52.153Z,2.80
2019-01-17T16:15:23.258Z,2.80
2019-01-17T16:17:53.005Z,2.90
2019-01-17T16:20:23.718Z,2.90
2019-01-17T16:22:53.119Z,2.90
2019-01-17T16:25:22.046Z,3.10
2019-01-17T16:27:53.174Z,2.70
2019-01-17T16:30:26.927Z,2.70
2019-01-17T16:32:55.928Z,2.70
2019-01-17T16:35:25.217Z,2.70
2019-01-17T16:37:54.233Z,2.60
2019-01-17T16:40:23.569Z,2.60
2019-01-17T16:42:52.513Z,2.60
2019-01-17T16:45:22.826Z,2.60
2019-01-17T16:47:51.841Z,2.40
2019-01-17T16:50:22.529Z,2.30
2019-01-17T16:52:51.613Z,2.30
2019-01-17T16:55:20.490Z,2.20
2019-01-17T16:57:49.542Z,2.10
2019-01-17T17:00:21.789Z,2.10
2019-01-17T17:02:50.631Z,2.10
2019-01-17T17:05:19.494Z,2.10
2019-01-17T17:07:48.697Z,2.00
2019-01-17T17:10:21.246Z,2.00
2019-01-17T17:12:50.124Z,2.00
2019-01-17T17:15:19.477Z,2.20
2019-01-17T17:17:48.373Z,2.30
2019-01-17T17:20:18.645Z,2.40
2019-01-17T17:22:48.470Z,2.50
2019-01-17T17:25:17.389Z,2.50
2019-01-17T17:27:46.490Z,2.50
2019-01-17T17:30:17.418Z,2.40
2019-01-17T17:32:46.437Z,2.20
2019-01-17T17:35:15.490Z,2.10
2019-01-17T17:37:44.479Z,2.00
2019-01-17T17:40:24.455Z,2.00
2019-01-17T17:42:53.338Z,1.90
2019-01-17T17:45:23.012Z,1.70
2019-01-17T17:47:52.064Z,1.60
2019-01-17T17:50:21.245Z,1.60
2019-01-17T17:52:50.122Z,1.50
2019-01-17T17:55:19.033Z,1.50
2019-01-17T17:57:48.595Z,1.50
2019-01-17T18:00:24.777Z,1.50
2019-01-17T18:02:54.189Z,1.00
2019-01-17T18:05:23.566Z,0.60
2019-01-17T18:07:52.767Z,0.70
2019-01-17T18:10:35.501Z,0.70
2019-01-17T18:13:05.006Z,0.60
2019-01-17T18:15:34.034Z,0.50
2019-01-17T18:18:02.985Z,0.50
2019-01-17T18:20:31.897Z,0.50
2019-01-17T18:23:00.725Z,0.50
2019-01-17T18:25:30.057Z,0.40
2019-01-17T18:27:58.933Z,0.40
2019-01-17T18:30:28.323Z,0.40
2019-01-17T18:32:57.373Z,0.40
2019-01-17T18:35:26.243Z,0.40
2019-01-17T18:37:55.366Z,0.40
2019-01-17T18:40:24.692Z,0.40
2019-01-17T18:42:53.423Z,0.40
2019-01-17T18:45:22.780Z,0.40
2019-01-17T18:47:51.608Z,0.40
2019-01-17T18:50:23.101Z,0.40
2019-01-17T18:52:52.162Z,0.40
2019-01-17T18:55:22.113Z,0.90
2019-01-17T18:57:50.973Z,0.40
2019-01-17T19:00:32.301Z,0.30
2019-01-17T19:03:01.423Z,0.30
2019-01-17T19:05:31.483Z,0.40
2019-01-17T19:08:00.774Z,0.40
2019-01-17T19:10:29.695Z,0.40
2019-01-17T19:12:58.550Z,0.40
2019-01-17T19:15:29.701Z,0.40
2019-01-17T19:17:58.761Z,0.40
2019-01-17T19:20:27.778Z,0.40
2019-01-17T19:22:56.749Z,0.40
2019-01-17T19:25:25.961Z,0.40
2019-01-17T19:27:55.395Z,0.40
2019-01-17T19:30:26.121Z,0.40
2019-01-17T19:32:55.363Z,0.50
2019-01-17T19:35:24.346Z,0.50
2019-01-17T19:37:53.136Z,0.50
2019-01-17T19:40:26.096Z,0.30
2019-01-17T19:42:56.893Z,0.10
2019-01-17T19:45:25.823Z,0.10
2019-01-17T19:47:55.560Z,0.00
2019-01-17T19:50:32.751Z,0.00
2019-01-17T19:53:01.829Z,0.00
2019-01-17T19:55:31.666Z,0.00
2019-01-17T19:58:01.921Z,0.00
2019-01-17T20:00:31.978Z,-0.70
2019-01-17T20:03:01.753Z,0.00
2019-01-17T20:05:31.886Z,0.00
2019-01-17T20:08:01.621Z,0.00
2019-01-17T20:10:32.890Z,0.00
2019-01-17T20:13:02.944Z,0.00
2019-01-17T20:15:31.777Z,0.00
2019-01-17T20:18:00.843Z,0.00
2019-01-17T20:20:32.084Z,0.00
2019-01-17T20:23:01.745Z,0.00
2019-01-17T20:25:30.817Z,-0.10
2019-01-17T20:27:59.716Z,-0.10
2019-01-17T20:30:32.152Z,-0.10
2019-01-17T20:33:02.469Z,-0.10
2019-01-17T20:35:31.405Z,0.00
2019-01-17T20:38:00.349Z,0.00
2019-01-17T20:40:29.285Z,0.00
2019-01-17T20:42:58.134Z,-0.10
2019-01-17T20:45:28.042Z,0.00
2019-01-17T20:47:56.923Z,-0.10
2019-01-17T20:50:32.229Z,0.00
2019-01-17T20:53:01.107Z,0.00
2019-01-17T20:55:29.998Z,0.00
2019-01-17T20:58:00.393Z,0.00
2019-01-17T21:01:07.733Z,-0.10
2019-01-17T21:03:36.858Z,0.00
2019-01-17T21:06:07.277Z,-0.10
2019-01-17T21:08:37.170Z,0.00
2019-01-17T21:11:07.269Z,0.00
2019-01-17T21:13:39.665Z,0.00
2019-01-17T21:16:10.457Z,0.00
2019-01-17T21:18:39.430Z,-0.10
2019-01-17T21:21:08.960Z,0.00
2019-01-17T21:23:37.761Z,0.00
2019-01-17T21:26:07.486Z,0.00
2019-01-17T21:28:37.327Z,0.00
2019-01-17T21:31:06.458Z,0.00
2019-01-17T21:33:36.066Z,0.00
2019-01-17T21:36:05.390Z,0.00
2019-01-17T21:38:34.341Z,-0.10
2019-01-17T21:41:03.414Z,0.00
2019-01-17T21:43:32.236Z,0.00
2019-01-17T21:46:01.369Z,-0.10
2019-01-17T21:48:30.250Z,0.00
2019-01-17T21:50:59.641Z,0.00
2019-01-17T21:53:29.373Z,-0.10
2019-01-17T21:55:58.247Z,0.00
2019-01-17T21:58:27.329Z,0.00
2019-01-17T22:00:56.157Z,0.00
2019-01-17T22:03:25.257Z,-0.10
2019-01-17T22:05:54.262Z,0.00
2019-01-17T22:08:23.195Z,-0.10
2019-01-17T22:10:52.021Z,-0.10
2019-01-17T22:13:20.784Z,-0.10
2019-01-17T22:15:49.779Z,0.00
2019-01-17T22:18:19.123Z,-0.10
2019-01-17T22:20:48.358Z,-0.10
2019-01-17T22:23:17.309Z,-0.10
2019-01-17T22:25:46.135Z,-0.10
2019-01-17T22:28:15.001Z,-0.10
2019-01-17T22:30:43.792Z,-0.10
2019-01-17T22:33:12.745Z,-0.10
2019-01-17T22:35:41.918Z,-0.10
2019-01-17T22:38:10.793Z,-0.10
2019-01-17T22:40:43.934Z,0.50
2019-01-17T22:43:13.422Z,-0.10
2019-01-17T22:45:43.273Z,-0.20
2019-01-17T22:48:12.512Z,-0.20
2019-01-17T22:50:41.506Z,-0.30
2019-01-17T22:53:10.285Z,-0.50
2019-01-17T22:55:39.477Z,-0.70
2019-01-17T22:58:08.485Z,-0.70
2019-01-17T23:00:50.803Z,-0.80
2019-01-17T23:03:31.277Z,-0.80
2019-01-17T23:06:00.110Z,-0.90
2019-01-17T23:08:29.143Z,-1.00
2019-01-17T23:10:58.793Z,-1.10
2019-01-17T23:13:28.966Z,-1.30
2019-01-17T23:16:00.657Z,-1.50
2019-01-17T23:18:29.473Z,-1.60
2019-01-17T23:20:58.609Z,-1.60
2019-01-17T23:23:28.469Z,-1.70
2019-01-17T23:25:58.064Z,-1.70
2019-01-17T23:28:26.958Z,-1.70
2019-01-17T23:30:55.802Z,-1.80
2019-01-17T23:33:26.031Z,-1.80
2019-01-17T23:35:55.087Z,-1.90
2019-01-17T23:38:24.154Z,-1.90
2019-01-17T23:40:53.029Z,-1.90
2019-01-17T23:43:22.057Z,-1.90
2019-01-17T23:45:51.242Z,-2.00
2019-01-17T23:48:20.397Z,-2.00
2019-01-17T23:50:50.113Z,-2.00
2019-01-17T23:53:18.889Z,-2.00
2019-01-17T23:55:48.594Z,-2.10
2019-01-17T23:58:18.014Z,-2.10
